createdAt,value
2019-04-23T00:01:42.559Z,12.29
2019-04-23T00:07:56.158Z,12.20
2019-04-23T00:10:19.399Z,12.28
2019-04-23T00:15:35.920Z,12.19
2019-04-23T00:18:02.796Z,12.13
2019-04-23T00:20:42.403Z,12.20
2019-04-23T00:23:10.681Z,12.15
2019-04-23T00:26:00.354Z,12.07
2019-04-23T00:33:30.208Z,11.97
2019-04-23T00:35:56.530Z,11.95
2019-04-23T00:38:33.586Z,11.81
2019-04-23T00:40:58.965Z,11.90
2019-04-23T00:43:27.002Z,11.82
2019-04-23T00:45:55.220Z,11.79
2019-04-23T00:50:57.489Z,11.70
2019-04-23T00:56:03.849Z,11.64
2019-04-23T00:58:27.879Z,11.67
2019-04-23T01:01:00.423Z,11.65
2019-04-23T01:03:21.787Z,11.62
2019-04-23T01:05:52.377Z,11.63
2019-04-23T01:08:26.430Z,11.60
2019-04-23T01:11:03.237Z,11.55
2019-04-23T01:13:40.093Z,11.49
2019-04-23T01:16:09.118Z,11.55
2019-04-23T01:20:55.126Z,11.47
2019-04-23T01:23:52.645Z,11.49
2019-04-23T01:26:35.503Z,11.54
2019-04-23T01:29:12.839Z,11.39
2019-04-23T01:31:41.423Z,11.39
2019-04-23T01:34:13.432Z,11.36
2019-04-23T01:36:35.673Z,11.40
2019-04-23T01:39:11.632Z,11.35
2019-04-23T01:41:41.463Z,11.33
2019-04-23T01:44:11.990Z,11.29
2019-04-23T01:46:36.015Z,11.21
2019-04-23T01:49:05.982Z,11.15
2019-04-23T01:51:44.219Z,11.13
2019-04-23T01:54:06.735Z,11.14
2019-04-23T01:56:33.145Z,11.06
2019-04-23T02:01:38.691Z,11.05
2019-04-23T02:04:10.098Z,10.93
2019-04-23T02:06:40.565Z,10.88
2019-04-23T02:09:10.582Z,10.82
2019-04-23T02:11:37.672Z,10.85
2019-04-23T02:14:09.608Z,10.92
2019-04-23T02:16:39.136Z,10.80
2019-04-23T02:19:13.849Z,10.74
2019-04-23T02:21:39.520Z,10.66
2019-04-23T02:24:03.646Z,10.62
2019-04-23T02:26:36.927Z,10.49
2019-04-23T02:31:53.493Z,10.50
2019-04-23T02:36:47.437Z,10.47
2019-04-23T02:39:19.771Z,10.42
2019-04-23T02:41:46.432Z,10.41
2019-04-23T02:46:41.490Z,10.36
2019-04-23T02:59:19.697Z,10.28
2019-04-23T03:06:52.300Z,10.19
2019-04-23T03:09:12.879Z,10.20
2019-04-23T03:11:41.796Z,10.07
2019-04-23T03:16:55.090Z,10.10
2019-04-23T03:19:31.890Z,10.11
2019-04-23T03:27:31.895Z,9.89
2019-04-23T03:29:57.901Z,9.92
2019-04-23T03:39:57.536Z,9.86
2019-04-23T03:42:17.768Z,9.74
2019-04-23T03:44:59.859Z,9.79
2019-04-23T03:47:29.790Z,9.84
2019-04-23T03:49:56.012Z,9.84
2019-04-23T03:54:46.485Z,9.83
2019-04-23T03:57:24.683Z,9.74
2019-04-23T04:02:37.804Z,9.84
2019-04-23T04:07:41.941Z,9.85
2019-04-23T04:12:25.159Z,9.92
2019-04-23T04:24:48.705Z,9.78
2019-04-23T04:27:34.012Z,9.74
2019-04-23T04:29:54.962Z,9.73
2019-04-23T04:32:09.883Z,9.75
2019-04-23T04:37:36.207Z,9.78
2019-04-23T04:40:03.587Z,9.78
2019-04-23T04:42:28.347Z,9.77
2019-04-23T04:45:14.234Z,9.78
2019-04-23T04:47:45.532Z,9.85
2019-04-23T04:55:03.265Z,9.97
2019-04-23T04:57:40.249Z,10.01
2019-04-23T05:00:13.223Z,10.06
2019-04-23T05:07:36.000Z,10.26
2019-04-23T05:10:29.726Z,10.29
2019-04-23T05:15:04.690Z,10.43
2019-04-23T05:18:00.105Z,10.52
2019-04-23T05:20:32.836Z,10.58
2019-04-23T05:23:06.027Z,10.70
2019-04-23T05:25:20.879Z,10.78
2019-04-23T05:30:25.124Z,10.93
2019-04-23T05:32:53.017Z,11.02
2019-04-23T05:37:58.441Z,11.29
2019-04-23T05:40:30.446Z,11.31
2019-04-23T05:45:18.506Z,11.46
2019-04-23T05:47:53.346Z,11.83
2019-04-23T05:50:32.465Z,11.84
2019-04-23T05:53:07.381Z,12.22
2019-04-23T05:55:13.254Z,12.52
2019-04-23T05:57:44.581Z,12.41
2019-04-23T06:00:15.786Z,12.33
2019-04-23T06:02:50.227Z,12.40
2019-04-23T06:05:20.129Z,12.57
2019-04-23T06:07:47.782Z,12.71
2019-04-23T06:10:19.766Z,12.96
2019-04-23T06:12:43.682Z,12.63
2019-04-23T06:15:22.240Z,12.89
2019-04-23T06:17:47.914Z,12.71
2019-04-23T06:20:15.122Z,12.82
2019-04-23T06:22:51.258Z,12.81
2019-04-23T06:25:45.588Z,12.71
2019-04-23T06:27:54.386Z,12.85
2019-04-23T06:30:25.793Z,13.12
2019-04-23T06:32:51.445Z,13.03
2019-04-23T06:35:22.438Z,13.02
2019-04-23T06:38:16.281Z,13.29
2019-04-23T06:40:21.813Z,13.25
2019-04-23T06:43:05.324Z,13.14
2019-04-23T06:45:32.077Z,13.41
2019-04-23T06:48:09.007Z,13.57
2019-04-23T06:50:43.384Z,13.65
2019-04-23T06:52:59.412Z,13.91
2019-04-23T06:55:36.044Z,13.78
2019-04-23T06:58:04.586Z,13.87
2019-04-23T07:00:34.224Z,14.12
2019-04-23T07:03:09.114Z,13.81
2019-04-23T07:06:06.991Z,13.65
2019-04-23T07:08:32.493Z,13.86
2019-04-23T07:10:57.879Z,14.12
2019-04-23T07:13:34.604Z,13.89
2019-04-23T07:15:53.792Z,14.11
2019-04-23T07:18:22.542Z,14.33
2019-04-23T07:20:50.464Z,14.38
2019-04-23T07:23:28.412Z,14.05
2019-04-23T07:26:02.482Z,14.41
2019-04-23T07:28:21.294Z,14.44
2019-04-23T07:30:52.440Z,14.68
2019-04-23T07:33:25.676Z,14.48
2019-04-23T07:35:45.410Z,14.49
2019-04-23T07:38:48.085Z,14.56
2019-04-23T07:41:18.604Z,14.58
2019-04-23T07:43:57.181Z,14.65
2019-04-23T07:46:59.482Z,14.75
2019-04-23T07:49:18.133Z,15.23
2019-04-23T07:51:49.945Z,15.32
2019-04-23T07:54:16.069Z,15.29
2019-04-23T07:56:45.635Z,15.18
2019-04-23T07:59:20.654Z,15.00
2019-04-23T08:01:48.890Z,14.93
2019-04-23T08:04:18.322Z,14.80
2019-04-23T08:06:50.657Z,15.12
2019-04-23T08:09:17.414Z,15.36
2019-04-23T08:12:07.277Z,15.14
2019-04-23T08:14:33.235Z,15.27
2019-04-23T08:16:42.408Z,15.21
2019-04-23T08:19:25.123Z,15.19
2019-04-23T08:22:02.989Z,15.59
2019-04-23T08:24:45.361Z,15.84
2019-04-23T08:27:10.063Z,15.65
2019-04-23T08:29:37.114Z,15.90
2019-04-23T08:32:16.817Z,15.74
2019-04-23T08:35:03.101Z,15.94
2019-04-23T08:42:33.463Z,16.23
2019-04-23T08:45:25.575Z,16.34
2019-04-23T08:48:14.371Z,16.12
2019-04-23T08:53:31.356Z,16.92
2019-04-23T08:58:14.351Z,16.70
2019-04-23T09:00:51.922Z,17.20
2019-04-23T09:03:23.584Z,17.93
2019-04-23T09:05:46.805Z,17.43
2019-04-23T09:08:15.123Z,18.13
2019-04-23T09:15:48.283Z,18.48
2019-04-23T09:18:16.665Z,18.57
2019-04-23T09:20:39.381Z,19.08
2019-04-23T09:23:13.174Z,18.57
2019-04-23T09:28:17.778Z,19.06
2019-04-23T09:30:48.773Z,19.06
2019-04-23T09:34:03.400Z,19.34
2019-04-23T09:39:20.510Z,19.13
2019-04-23T09:42:08.791Z,19.33
2019-04-23T09:47:38.544Z,19.30
2019-04-23T09:50:01.813Z,19.79
2019-04-23T09:52:36.771Z,19.80
2019-04-23T09:55:09.837Z,19.97
2019-04-23T09:57:33.859Z,20.24
2019-04-23T10:00:02.620Z,20.79
2019-04-23T10:02:22.230Z,19.58
2019-04-23T10:04:50.055Z,19.75
2019-04-23T10:07:16.470Z,19.84
2019-04-23T10:09:32.427Z,20.50
2019-04-23T10:12:01.144Z,20.34
2019-04-23T10:14:30.334Z,20.35
2019-04-23T10:16:59.882Z,20.81
2019-04-23T10:19:28.762Z,21.31
2019-04-23T10:21:57.578Z,20.76
2019-04-23T10:24:25.411Z,21.30
2019-04-23T10:26:53.162Z,21.96
2019-04-23T10:29:23.884Z,21.71
2019-04-23T10:31:51.703Z,21.87
2019-04-23T10:34:21.039Z,21.59
2019-04-23T10:36:49.558Z,21.92
2019-04-23T10:39:24.173Z,22.08
2019-04-23T10:41:52.232Z,21.82
2019-04-23T10:44:23.657Z,21.64
2019-04-23T10:47:40.427Z,21.91
2019-04-23T10:50:35.602Z,22.00
2019-04-23T10:53:01.787Z,22.69
2019-04-23T10:55:39.707Z,23.11
2019-04-23T10:57:54.533Z,22.63
2019-04-23T11:00:33.819Z,23.05
2019-04-23T11:03:03.765Z,23.01
2019-04-23T11:05:37.671Z,22.75
2019-04-23T11:07:53.606Z,22.30
2019-04-23T11:10:25.863Z,21.93
2019-04-23T11:13:12.115Z,21.75
2019-04-23T11:17:58.319Z,22.18
2019-04-23T11:22:58.463Z,21.43
2019-04-23T11:25:36.734Z,21.66
2019-04-23T11:28:16.179Z,21.52
2019-04-23T11:30:45.222Z,21.55
2019-04-23T11:35:47.655Z,22.24
2019-04-23T11:38:32.273Z,21.99
2019-04-23T11:40:49.496Z,21.94
2019-04-23T11:43:20.299Z,22.16
2019-04-23T11:48:33.036Z,22.57
2019-04-23T11:53:20.523Z,22.67
2019-04-23T12:03:36.692Z,22.90
2019-04-23T12:06:30.128Z,23.03
2019-04-23T12:09:07.683Z,22.48
2019-04-23T12:11:53.856Z,22.62
2019-04-23T12:17:13.034Z,22.87
2019-04-23T12:19:52.173Z,23.00
2019-04-23T12:22:15.103Z,22.63
2019-04-23T12:25:03.472Z,22.65
2019-04-23T12:29:35.367Z,22.37
2019-04-23T12:32:37.462Z,22.72
2019-04-23T12:35:09.033Z,22.61
2019-04-23T12:37:33.388Z,22.49
2019-04-23T12:40:00.524Z,22.45
2019-04-23T12:42:43.371Z,22.66
2019-04-23T12:44:56.509Z,22.32
2019-04-23T12:47:40.196Z,22.30
2019-04-23T12:52:30.723Z,22.29
2019-04-23T12:55:06.834Z,22.44
2019-04-23T12:57:30.855Z,22.67
2019-04-23T13:00:00.331Z,22.64
2019-04-23T13:02:33.113Z,22.42
2019-04-23T13:04:51.724Z,22.30
2019-04-23T13:07:33.503Z,22.57
2019-04-23T13:09:58.131Z,22.42
2019-04-23T13:12:36.307Z,22.56
2019-04-23T13:14:57.319Z,22.82
2019-04-23T13:17:31.207Z,23.11
2019-04-23T13:20:15.167Z,23.17
2019-04-23T13:22:31.760Z,23.01
2019-04-23T13:25:18.196Z,23.45
2019-04-23T13:27:53.969Z,23.52
2019-04-23T13:30:23.415Z,23.46
2019-04-23T13:32:55.313Z,23.46
2019-04-23T13:35:36.239Z,23.14
2019-04-23T13:37:53.196Z,23.19
2019-04-23T13:40:17.877Z,23.08
2019-04-23T13:45:33.304Z,23.29
2019-04-23T13:50:29.451Z,23.68
2019-04-23T13:53:08.086Z,23.27
2019-04-23T13:55:15.291Z,23.00
2019-04-23T13:58:07.409Z,22.59
2019-04-23T14:00:20.830Z,22.77
2019-04-23T14:02:46.235Z,22.60
2019-04-23T14:05:33.129Z,22.43
2019-04-23T14:08:13.258Z,22.63
2019-04-23T14:13:28.531Z,22.63
2019-04-23T14:15:44.730Z,22.12
2019-04-23T14:18:48.438Z,22.25
2019-04-23T14:20:33.425Z,22.14
2019-04-23T14:23:14.171Z,22.49
2019-04-23T14:25:41.526Z,22.51
2019-04-23T14:30:38.252Z,21.83
2019-04-23T14:33:12.305Z,21.87
2019-04-23T14:38:22.125Z,21.67
2019-04-23T14:48:14.328Z,21.67
2019-04-23T14:51:09.833Z,21.88
2019-04-23T14:53:18.171Z,21.59
2019-04-23T14:55:56.905Z,21.51
2019-04-23T15:03:28.770Z,21.10
2019-04-23T15:06:04.893Z,21.07
2019-04-23T15:08:24.912Z,21.02
2019-04-23T15:11:06.664Z,21.05
2019-04-23T15:13:23.163Z,20.98
2019-04-23T15:15:53.177Z,20.94
2019-04-23T15:18:48.617Z,21.13
2019-04-23T15:21:34.237Z,20.89
2019-04-23T15:23:55.205Z,20.79
2019-04-23T15:27:02.268Z,20.94
2019-04-23T15:28:11.315Z,21.02
2019-04-23T15:31:10.104Z,20.86
2019-04-23T15:33:48.490Z,20.43
2019-04-23T15:36:27.167Z,19.97
2019-04-23T15:38:43.291Z,20.22
2019-04-23T15:41:07.367Z,20.03
2019-04-23T15:43:39.295Z,20.02
2019-04-23T15:46:12.970Z,19.69
2019-04-23T15:48:49.882Z,19.79
2019-04-23T15:51:12.562Z,19.85
2019-04-23T15:53:35.256Z,19.59
2019-04-23T15:56:16.171Z,19.59
2019-04-23T15:58:50.421Z,19.34
2019-04-23T16:01:24.067Z,19.32
2019-04-23T16:03:20.328Z,19.35
2019-04-23T16:05:48.858Z,19.08
2019-04-23T16:08:56.852Z,19.21
2019-04-23T16:14:16.730Z,19.13
2019-04-23T16:16:37.401Z,18.90
2019-04-23T16:24:22.244Z,18.88
2019-04-23T16:26:52.430Z,18.87
2019-04-23T16:34:33.556Z,18.69
2019-04-23T16:37:10.248Z,18.67
2019-04-23T16:39:39.453Z,18.70
2019-04-23T16:42:09.988Z,18.56
2019-04-23T16:44:48.566Z,18.49
2019-04-23T16:47:10.546Z,18.47
2019-04-23T16:49:42.167Z,18.41
2019-04-23T16:54:51.507Z,18.23
2019-04-23T16:57:21.517Z,18.12
2019-04-23T16:59:46.921Z,18.09
2019-04-23T17:04:38.718Z,18.06
2019-04-23T17:07:08.443Z,17.97
2019-04-23T17:10:01.229Z,17.91
2019-04-23T17:12:10.784Z,17.82
2019-04-23T17:14:42.028Z,17.83
2019-04-23T17:17:04.810Z,17.79
2019-04-23T17:19:41.031Z,17.66
2019-04-23T17:22:11.083Z,17.60
2019-04-23T17:24:40.437Z,17.54
2019-04-23T17:29:41.206Z,17.36
2019-04-23T17:32:10.345Z,17.30
2019-04-23T17:34:54.688Z,17.20
2019-04-23T17:37:26.697Z,17.10
2019-04-23T17:40:08.371Z,17.07
2019-04-23T17:42:48.348Z,16.98
2019-04-23T17:48:13.316Z,16.80
2019-04-23T17:53:22.247Z,16.68
2019-04-23T17:55:52.408Z,16.53
2019-04-23T17:58:16.115Z,16.48
2019-04-23T18:03:30.454Z,16.29
2019-04-23T18:06:03.533Z,16.21
2019-04-23T18:08:19.386Z,16.03
2019-04-23T18:10:56.547Z,15.98
2019-04-23T18:13:22.878Z,15.84
2019-04-23T18:15:57.091Z,15.82
2019-04-23T18:18:33.114Z,15.73
2019-04-23T18:21:33.583Z,15.61
2019-04-23T18:24:02.744Z,15.60
2019-04-23T18:26:39.957Z,15.51
2019-04-23T18:29:17.338Z,15.44
2019-04-23T18:31:51.466Z,15.38
2019-04-23T18:34:12.542Z,15.33
2019-04-23T18:36:48.248Z,15.18
2019-04-23T18:39:23.832Z,15.19
2019-04-23T18:41:50.403Z,15.11
2019-04-23T18:44:21.629Z,15.09
2019-04-23T18:46:48.983Z,14.95
2019-04-23T18:49:22.273Z,14.91
2019-04-23T18:51:51.280Z,14.85
2019-04-23T18:54:21.866Z,14.87
2019-04-23T18:57:06.508Z,14.76
2019-04-23T19:02:00.202Z,14.64
2019-04-23T19:05:07.281Z,14.51
2019-04-23T19:07:27.470Z,14.54
2019-04-23T19:13:02.049Z,14.35
2019-04-23T19:17:50.148Z,14.20
2019-04-23T19:20:53.785Z,14.15
2019-04-23T19:22:58.318Z,14.10
2019-04-23T19:25:28.122Z,13.97
2019-04-23T19:28:30.331Z,13.92
2019-04-23T19:33:29.518Z,13.77
2019-04-23T19:36:01.518Z,13.78
2019-04-23T19:38:13.503Z,13.75
2019-04-23T19:40:51.503Z,13.65
2019-04-23T19:43:18.154Z,13.61
2019-04-23T19:45:55.613Z,13.61
2019-04-23T19:53:25.333Z,13.40
2019-04-23T19:55:58.798Z,13.32
2019-04-23T19:58:25.633Z,13.26
2019-04-23T20:01:03.713Z,13.14
2019-04-23T20:05:55.618Z,13.11
2019-04-23T20:08:34.508Z,13.01
2019-04-23T20:10:52.056Z,12.96
2019-04-23T20:13:21.855Z,12.92
2019-04-23T20:16:05.555Z,12.87
2019-04-23T20:18:25.213Z,12.74
2019-04-23T20:20:49.747Z,12.63
2019-04-23T20:23:24.822Z,12.64
2019-04-23T20:26:12.514Z,12.40
2019-04-23T20:31:13.886Z,12.43
2019-04-23T20:34:25.407Z,12.30
2019-04-23T20:39:09.233Z,12.09
2019-04-23T20:42:07.898Z,12.07
2019-04-23T20:44:27.106Z,11.99
2019-04-23T20:47:04.841Z,11.88
2019-04-23T20:49:21.407Z,11.85
2019-04-23T20:52:00.642Z,11.80
2019-04-23T20:54:18.603Z,11.67
2019-04-23T20:57:22.855Z,11.59
2019-04-23T20:59:54.910Z,11.61
2019-04-23T21:03:04.742Z,11.65
2019-04-23T21:13:09.209Z,11.32
2019-04-23T21:17:51.310Z,11.17
2019-04-23T21:20:33.590Z,11.06
2019-04-23T21:22:44.995Z,11.04
2019-04-23T21:25:14.598Z,10.96
2019-04-23T21:27:55.437Z,10.90
2019-04-23T21:30:48.543Z,10.96
2019-04-23T21:33:11.562Z,10.92
2019-04-23T21:36:12.630Z,10.86
2019-04-23T21:38:43.463Z,10.80
2019-04-23T21:41:17.231Z,10.79
2019-04-23T21:43:58.842Z,10.78
2019-04-23T21:46:15.933Z,10.73
2019-04-23T21:51:24.485Z,10.63
2019-04-23T21:53:42.680Z,10.63
2019-04-23T21:56:08.632Z,10.54
2019-04-23T21:58:54.861Z,10.45
2019-04-23T22:04:02.891Z,10.19
2019-04-23T22:06:25.528Z,10.18
2019-04-23T22:08:54.480Z,10.25
2019-04-23T22:11:48.345Z,10.21
2019-04-23T22:13:58.270Z,10.26
2019-04-23T22:16:29.644Z,10.25
2019-04-23T22:18:57.152Z,10.35
2019-04-23T22:21:26.165Z,10.30
2019-04-23T22:23:58.275Z,10.25
2019-04-23T22:26:25.524Z,10.07
2019-04-23T22:28:57.910Z,9.84
2019-04-23T22:38:44.608Z,9.22
2019-04-23T22:41:10.529Z,9.16
2019-04-23T22:43:53.415Z,9.20
2019-04-23T22:46:16.322Z,9.26
2019-04-23T22:49:07.940Z,9.40
2019-04-23T22:51:31.596Z,9.62
2019-04-23T22:54:02.399Z,9.77
2019-04-23T22:56:26.009Z,9.82
2019-04-23T22:59:01.963Z,9.88
2019-04-23T23:01:26.033Z,9.96
2019-04-23T23:06:57.335Z,10.04
2019-04-23T23:09:33.022Z,10.01
2019-04-23T23:11:49.067Z,10.05
2019-04-23T23:16:45.138Z,10.08
2019-04-23T23:21:53.540Z,10.15
2019-04-23T23:26:50.334Z,10.12
2019-04-23T23:29:06.177Z,10.07
2019-04-23T23:31:44.814Z,10.03
2019-04-23T23:34:13.654Z,9.97
2019-04-23T23:36:47.617Z,9.88
2019-04-23T23:39:17.030Z,9.84
2019-04-23T23:41:40.478Z,9.86
2019-04-23T23:44:28.098Z,9.81
2019-04-23T23:46:48.732Z,9.71
2019-04-23T23:49:11.063Z,9.55
2019-04-23T23:51:39.852Z,9.49
2019-04-23T23:54:08.208Z,9.37
2019-04-23T23:56:38.765Z,9.37
2019-04-23T23:59:10.636Z,9.23
